Terminal Aerodrome Forecast
Issued by NWS Sioux Falls, SD

Home | Current Version | Previous Version | Text Only | Print | Product List | Glossary Off
Versions: 1 2 3 4 5 6 7 8 9 10 11 12

415
FTUS43 KFSD 211730
TAFFSD
TAF
KFSD 211730Z 2118/2218 16010G20KT P6SM SCT250
     FM212100 18008KT P6SM SCT140
     FM212300 25007KT P6SM SCT200
     FM220400 02003KT P6SM SCT250
     FM221100 04006KT P6SM BKN150
     FM221500 05010KT P6SM BKN070=

USA.gov is the U.S. government's official web portal to all federal, state and local government web resources and services.